sensor_id;sensor_type;location;lat;lon;timestamp;P1;durP1;ratioP1;P2;durP2;ratioP2
7773;SDS011;3931;42.260;23.116;2023-03-23T00:01:53;29.97;;;15.50;;
7773;SDS011;3931;42.260;23.116;2023-03-23T00:04:19;26.00;;;13.50;;
7773;SDS011;3931;42.260;23.116;2023-03-23T00:06:46;17.87;;;11.10;;
7773;SDS011;3931;42.260;23.116;2023-03-23T00:09:12;25.93;;;13.17;;
7773;SDS011;3931;42.260;23.116;2023-03-23T00:11:40;24.57;;;13.83;;
7773;SDS011;3931;42.260;23.116;2023-03-23T00:14:07;19.37;;;13.47;;
7773;SDS011;3931;42.260;23.116;2023-03-23T00:16:39;23.30;;;12.33;;
7773;SDS011;3931;42.260;23.116;2023-03-23T00:19:06;28.27;;;13.87;;
7773;SDS011;3931;42.260;23.116;2023-03-23T00:21:34;22.40;;;13.30;;
7773;SDS011;3931;42.260;23.116;2023-03-23T00:24:03;25.10;;;13.20;;
7773;SDS011;3931;42.260;23.116;2023-03-23T00:26:32;26.90;;;13.23;;
7773;SDS011;3931;42.260;23.116;2023-03-23T00:29:00;35.63;;;18.13;;
7773;SDS011;3931;42.260;23.116;2023-03-23T00:31:27;26.03;;;13.80;;
7773;SDS011;3931;42.260;23.116;2023-03-23T00:33:56;23.57;;;13.73;;
7773;SDS011;3931;42.260;23.116;2023-03-23T00:36:23;27.07;;;12.40;;
7773;SDS011;3931;42.260;23.116;2023-03-23T00:38:49;24.80;;;12.63;;
7773;SDS011;3931;42.260;23.116;2023-03-23T00:41:16;28.67;;;15.10;;
7773;SDS011;3931;42.260;23.116;2023-03-23T00:43:42;26.20;;;13.13;;
7773;SDS011;3931;42.260;23.116;2023-03-23T00:46:08;20.20;;;12.20;;
7773;SDS011;3931;42.260;23.116;2023-03-23T00:48:34;21.43;;;12.37;;
7773;SDS011;3931;42.260;23.116;2023-03-23T00:51:01;23.03;;;12.00;;
7773;SDS011;3931;42.260;23.116;2023-03-23T00:53:31;20.80;;;11.83;;
7773;SDS011;3931;42.260;23.116;2023-03-23T00:55:57;20.13;;;11.77;;
7773;SDS011;3931;42.260;23.116;2023-03-23T00:58:24;18.00;;;11.80;;
7773;SDS011;3931;42.260;23.116;2023-03-23T01:00:50;19.20;;;12.13;;
7773;SDS011;3931;42.260;23.116;2023-03-23T01:03:16;18.30;;;11.17;;
7773;SDS011;3931;42.260;23.116;2023-03-23T01:05:43;19.23;;;11.07;;
7773;SDS011;3931;42.260;23.116;2023-03-23T01:08:11;19.53;;;12.17;;
7773;SDS011;3931;42.260;23.116;2023-03-23T01:10:38;20.10;;;11.30;;
7773;SDS011;3931;42.260;23.116;2023-03-23T01:13:05;18.97;;;12.17;;
7773;SDS011;3931;42.260;23.116;2023-03-23T01:15:33;19.53;;;11.40;;
7773;SDS011;3931;42.260;23.116;2023-03-23T01:18:00;20.17;;;10.57;;
7773;SDS011;3931;42.260;23.116;2023-03-23T01:20:27;16.27;;;11.17;;
7773;SDS011;3931;42.260;23.116;2023-03-23T01:22:54;24.20;;;12.93;;
7773;SDS011;3931;42.260;23.116;2023-03-23T01:25:25;16.90;;;11.53;;
7773;SDS011;3931;42.260;23.116;2023-03-23T01:27:52;19.80;;;11.30;;
7773;SDS011;3931;42.260;23.116;2023-03-23T01:30:18;18.60;;;12.00;;
7773;SDS011;3931;42.260;23.116;2023-03-23T01:32:44;18.83;;;11.30;;
7773;SDS011;3931;42.260;23.116;2023-03-23T01:35:11;19.33;;;11.80;;
7773;SDS011;3931;42.260;23.116;2023-03-23T01:37:38;16.50;;;11.50;;
7773;SDS011;3931;42.260;23.116;2023-03-23T01:40:04;26.00;;;11.80;;
7773;SDS011;3931;42.260;23.116;2023-03-23T01:42:33;18.93;;;10.43;;
7773;SDS011;3931;42.260;23.116;2023-03-23T01:48:00;21.87;;;11.17;;
7773;SDS011;3931;42.260;23.116;2023-03-23T01:50:33;18.07;;;11.57;;
7773;SDS011;3931;42.260;23.116;2023-03-23T01:53:03;17.40;;;10.67;;
7773;SDS011;3931;42.260;23.116;2023-03-23T01:55:33;20.00;;;11.63;;
7773;SDS011;3931;42.260;23.116;2023-03-23T01:58:01;20.53;;;11.77;;
7773;SDS011;3931;42.260;23.116;2023-03-23T02:00:28;18.23;;;10.40;;
7773;SDS011;3931;42.260;23.116;2023-03-23T02:02:55;20.00;;;11.00;;
7773;SDS011;3931;42.260;23.116;2023-03-23T02:05:24;19.97;;;11.17;;
7773;SDS011;3931;42.260;23.116;2023-03-23T02:07:56;27.17;;;12.10;;
7773;SDS011;3931;42.260;23.116;2023-03-23T02:10:28;25.53;;;13.57;;
7773;SDS011;3931;42.260;23.116;2023-03-23T02:12:55;16.57;;;10.70;;
7773;SDS011;3931;42.260;23.116;2023-03-23T02:15:21;17.63;;;10.77;;
7773;SDS011;3931;42.260;23.116;2023-03-23T02:17:50;19.80;;;10.93;;
7773;SDS011;3931;42.260;23.116;2023-03-23T02:20:33;17.83;;;11.10;;
7773;SDS011;3931;42.260;23.116;2023-03-23T02:23:15;21.20;;;10.47;;
7773;SDS011;3931;42.260;23.116;2023-03-23T02:26:03;18.17;;;11.50;;
7773;SDS011;3931;42.260;23.116;2023-03-23T02:28:48;19.77;;;12.67;;
7773;SDS011;3931;42.260;23.116;2023-03-23T02:31:47;20.30;;;11.50;;
7773;SDS011;3931;42.260;23.116;2023-03-23T02:34:27;18.63;;;11.60;;
7773;SDS011;3931;42.260;23.116;2023-03-23T02:36:58;17.77;;;11.00;;
7773;SDS011;3931;42.260;23.116;2023-03-23T02:39:28;22.57;;;11.80;;
7773;SDS011;3931;42.260;23.116;2023-03-23T02:41:57;24.60;;;15.80;;
7773;SDS011;3931;42.260;23.116;2023-03-23T02:44:27;32.87;;;18.07;;
7773;SDS011;3931;42.260;23.116;2023-03-23T02:46:56;20.27;;;12.00;;
7773;SDS011;3931;42.260;23.116;2023-03-23T02:49:25;17.20;;;10.67;;
7773;SDS011;3931;42.260;23.116;2023-03-23T02:51:55;16.30;;;9.97;;
7773;SDS011;3931;42.260;23.116;2023-03-23T02:54:23;16.43;;;10.00;;
7773;SDS011;3931;42.260;23.116;2023-03-23T02:56:51;17.17;;;10.33;;
7773;SDS011;3931;42.260;23.116;2023-03-23T02:59:19;20.80;;;12.00;;
7773;SDS011;3931;42.260;23.116;2023-03-23T03:01:48;18.50;;;10.63;;
7773;SDS011;3931;42.260;23.116;2023-03-23T03:04:20;21.00;;;12.97;;
7773;SDS011;3931;42.260;23.116;2023-03-23T03:06:54;23.33;;;12.37;;
7773;SDS011;3931;42.260;23.116;2023-03-23T03:09:35;18.83;;;10.97;;
7773;SDS011;3931;42.260;23.116;2023-03-23T03:12:08;18.83;;;11.80;;
7773;SDS011;3931;42.260;23.116;2023-03-23T03:14:38;31.47;;;17.60;;
7773;SDS011;3931;42.260;23.116;2023-03-23T03:17:13;127.20;;;49.47;;
7773;SDS011;3931;42.260;23.116;2023-03-23T03:19:44;184.33;;;65.43;;
7773;SDS011;3931;42.260;23.116;2023-03-23T03:22:14;112.57;;;45.10;;
7773;SDS011;3931;42.260;23.116;2023-03-23T03:24:42;114.60;;;45.13;;
7773;SDS011;3931;42.260;23.116;2023-03-23T03:27:10;44.20;;;22.63;;
7773;SDS011;3931;42.260;23.116;2023-03-23T03:29:40;21.73;;;12.10;;
7773;SDS011;3931;42.260;23.116;2023-03-23T03:32:08;18.13;;;9.57;;
7773;SDS011;3931;42.260;23.116;2023-03-23T03:34:38;16.63;;;10.67;;
7773;SDS011;3931;42.260;23.116;2023-03-23T03:37:05;19.40;;;11.73;;
7773;SDS011;3931;42.260;23.116;2023-03-23T03:39:33;15.00;;;10.20;;
7773;SDS011;3931;42.260;23.116;2023-03-23T03:42:00;25.67;;;17.07;;
7773;SDS011;3931;42.260;23.116;2023-03-23T03:44:27;22.60;;;15.13;;
7773;SDS011;3931;42.260;23.116;2023-03-23T03:46:53;20.80;;;12.07;;
7773;SDS011;3931;42.260;23.116;2023-03-23T03:49:19;17.60;;;11.40;;
7773;SDS011;3931;42.260;23.116;2023-03-23T03:51:45;14.23;;;9.67;;
7773;SDS011;3931;42.260;23.116;2023-03-23T03:54:11;13.53;;;8.93;;
7773;SDS011;3931;42.260;23.116;2023-03-23T03:56:38;14.13;;;9.80;;
7773;SDS011;3931;42.260;23.116;2023-03-23T03:59:05;12.73;;;9.00;;
7773;SDS011;3931;42.260;23.116;2023-03-23T04:01:33;19.73;;;10.40;;
7773;SDS011;3931;42.260;23.116;2023-03-23T04:03:59;17.47;;;10.33;;
7773;SDS011;3931;42.260;23.116;2023-03-23T04:06:25;15.30;;;9.80;;
7773;SDS011;3931;42.260;23.116;2023-03-23T04:08:52;12.63;;;9.37;;
7773;SDS011;3931;42.260;23.116;2023-03-23T04:11:20;18.83;;;10.13;;
7773;SDS011;3931;42.260;23.116;2023-03-23T04:13:47;18.43;;;11.93;;
7773;SDS011;3931;42.260;23.116;2023-03-23T04:16:13;11.70;;;8.33;;
7773;SDS011;3931;42.260;23.116;2023-03-23T04:18:42;18.63;;;8.40;;
7773;SDS011;3931;42.260;23.116;2023-03-23T04:21:08;14.00;;;9.30;;
7773;SDS011;3931;42.260;23.116;2023-03-23T04:23:35;11.67;;;8.37;;
7773;SDS011;3931;42.260;23.116;2023-03-23T04:26:01;11.60;;;8.20;;
7773;SDS011;3931;42.260;23.116;2023-03-23T04:28:28;9.43;;;6.83;;
7773;SDS011;3931;42.260;23.116;2023-03-23T04:30:59;12.50;;;7.67;;
7773;SDS011;3931;42.260;23.116;2023-03-23T04:33:26;8.57;;;6.53;;
7773;SDS011;3931;42.260;23.116;2023-03-23T04:35:53;11.07;;;7.67;;
7773;SDS011;3931;42.260;23.116;2023-03-23T04:38:21;8.20;;;6.40;;
7773;SDS011;3931;42.260;23.116;2023-03-23T04:40:49;13.57;;;7.70;;
7773;SDS011;3931;42.260;23.116;2023-03-23T04:43:17;10.37;;;6.77;;
7773;SDS011;3931;42.260;23.116;2023-03-23T04:45:46;12.37;;;8.37;;
7773;SDS011;3931;42.260;23.116;2023-03-23T04:48:13;9.33;;;6.67;;
7773;SDS011;3931;42.260;23.116;2023-03-23T04:50:39;13.60;;;9.00;;
7773;SDS011;3931;42.260;23.116;2023-03-23T04:53:05;13.97;;;7.67;;
7773;SDS011;3931;42.260;23.116;2023-03-23T04:55:31;17.23;;;8.23;;
7773;SDS011;3931;42.260;23.116;2023-03-23T04:58:01;11.73;;;7.40;;
7773;SDS011;3931;42.260;23.116;2023-03-23T05:00:27;16.97;;;11.00;;
7773;SDS011;3931;42.260;23.116;2023-03-23T05:02:54;35.43;;;18.53;;
7773;SDS011;3931;42.260;23.116;2023-03-23T05:05:22;16.90;;;11.07;;
7773;SDS011;3931;42.260;23.116;2023-03-23T05:07:49;38.33;;;15.90;;
7773;SDS011;3931;42.260;23.116;2023-03-23T05:10:15;27.60;;;14.10;;
7773;SDS011;3931;42.260;23.116;2023-03-23T05:12:42;14.97;;;9.50;;
7773;SDS011;3931;42.260;23.116;2023-03-23T05:15:09;29.83;;;11.97;;
7773;SDS011;3931;42.260;23.116;2023-03-23T05:17:36;16.20;;;9.20;;
7773;SDS011;3931;42.260;23.116;2023-03-23T05:20:03;21.17;;;9.60;;
7773;SDS011;3931;42.260;23.116;2023-03-23T05:22:33;20.37;;;9.70;;
7773;SDS011;3931;42.260;23.116;2023-03-23T05:25:00;14.50;;;9.13;;
7773;SDS011;3931;42.260;23.116;2023-03-23T05:27:28;17.63;;;8.90;;
7773;SDS011;3931;42.260;23.116;2023-03-23T05:29:55;15.00;;;9.27;;
7773;SDS011;3931;42.260;23.116;2023-03-23T05:32:23;22.47;;;12.07;;
7773;SDS011;3931;42.260;23.116;2023-03-23T05:34:53;26.10;;;10.00;;
7773;SDS011;3931;42.260;23.116;2023-03-23T05:37:20;26.03;;;8.63;;
7773;SDS011;3931;42.260;23.116;2023-03-23T05:39:47;10.30;;;8.13;;
7773;SDS011;3931;42.260;23.116;2023-03-23T05:42:13;37.83;;;10.13;;
7773;SDS011;3931;42.260;23.116;2023-03-23T05:44:39;17.20;;;8.50;;
7773;SDS011;3931;42.260;23.116;2023-03-23T05:47:05;15.00;;;8.40;;
7773;SDS011;3931;42.260;23.116;2023-03-23T05:49:31;27.43;;;9.60;;
7773;SDS011;3931;42.260;23.116;2023-03-23T05:51:57;66.97;;;12.73;;
7773;SDS011;3931;42.260;23.116;2023-03-23T05:54:24;20.90;;;9.13;;
7773;SDS011;3931;42.260;23.116;2023-03-23T05:56:51;14.93;;;8.97;;
7773;SDS011;3931;42.260;23.116;2023-03-23T05:59:17;16.77;;;9.40;;
7773;SDS011;3931;42.260;23.116;2023-03-23T06:01:43;25.73;;;10.57;;
7773;SDS011;3931;42.260;23.116;2023-03-23T06:04:09;16.57;;;9.70;;
7773;SDS011;3931;42.260;23.116;2023-03-23T06:06:36;14.43;;;9.00;;
7773;SDS011;3931;42.260;23.116;2023-03-23T06:09:03;15.60;;;8.80;;
7773;SDS011;3931;42.260;23.116;2023-03-23T06:11:29;15.93;;;8.30;;
7773;SDS011;3931;42.260;23.116;2023-03-23T06:13:55;32.13;;;8.40;;
7773;SDS011;3931;42.260;23.116;2023-03-23T06:16:22;28.00;;;10.40;;
7773;SDS011;3931;42.260;23.116;2023-03-23T06:18:48;19.70;;;8.60;;
7773;SDS011;3931;42.260;23.116;2023-03-23T06:21:14;12.87;;;8.10;;
7773;SDS011;3931;42.260;23.116;2023-03-23T06:23:43;17.60;;;8.97;;
7773;SDS011;3931;42.260;23.116;2023-03-23T06:26:09;16.10;;;9.77;;
7773;SDS011;3931;42.260;23.116;2023-03-23T06:28:39;64.37;;;9.50;;
7773;SDS011;3931;42.260;23.116;2023-03-23T06:31:06;41.07;;;9.00;;
7773;SDS011;3931;42.260;23.116;2023-03-23T06:33:33;15.00;;;9.20;;
7773;SDS011;3931;42.260;23.116;2023-03-23T06:36:00;22.87;;;11.00;;
7773;SDS011;3931;42.260;23.116;2023-03-23T06:38:27;13.03;;;9.13;;
7773;SDS011;3931;42.260;23.116;2023-03-23T06:40:53;18.47;;;9.90;;
7773;SDS011;3931;42.260;23.116;2023-03-23T06:43:20;19.53;;;10.60;;
7773;SDS011;3931;42.260;23.116;2023-03-23T06:45:47;17.53;;;10.77;;
7773;SDS011;3931;42.260;23.116;2023-03-23T06:48:13;23.23;;;9.73;;
7773;SDS011;3931;42.260;23.116;2023-03-23T06:50:41;17.80;;;11.90;;
7773;SDS011;3931;42.260;23.116;2023-03-23T06:53:08;21.90;;;13.30;;
7773;SDS011;3931;42.260;23.116;2023-03-23T06:55:35;18.80;;;9.93;;
7773;SDS011;3931;42.260;23.116;2023-03-23T06:58:01;15.00;;;9.83;;
7773;SDS011;3931;42.260;23.116;2023-03-23T07:00:27;21.20;;;10.57;;
7773;SDS011;3931;42.260;23.116;2023-03-23T07:02:54;18.97;;;11.03;;
7773;SDS011;3931;42.260;23.116;2023-03-23T07:05:21;18.57;;;11.40;;
7773;SDS011;3931;42.260;23.116;2023-03-23T07:07:47;21.00;;;10.97;;
7773;SDS011;3931;42.260;23.116;2023-03-23T07:10:13;23.90;;;13.07;;
7773;SDS011;3931;42.260;23.116;2023-03-23T07:12:40;16.03;;;9.37;;
7773;SDS011;3931;42.260;23.116;2023-03-23T07:15:07;34.80;;;20.37;;
7773;SDS011;3931;42.260;23.116;2023-03-23T07:17:35;20.53;;;9.80;;
7773;SDS011;3931;42.260;23.116;2023-03-23T07:20:02;35.53;;;16.83;;
7773;SDS011;3931;42.260;23.116;2023-03-23T07:22:29;18.57;;;8.80;;
7773;SDS011;3931;42.260;23.116;2023-03-23T07:24:55;15.00;;;9.37;;
7773;SDS011;3931;42.260;23.116;2023-03-23T07:27:21;23.07;;;13.87;;
7773;SDS011;3931;42.260;23.116;2023-03-23T07:29:47;33.00;;;18.40;;
7773;SDS011;3931;42.260;23.116;2023-03-23T07:32:13;32.60;;;16.90;;
7773;SDS011;3931;42.260;23.116;2023-03-23T07:34:39;20.37;;;10.27;;
7773;SDS011;3931;42.260;23.116;2023-03-23T07:37:06;42.77;;;12.00;;
7773;SDS011;3931;42.260;23.116;2023-03-23T07:39:33;16.47;;;9.40;;
7773;SDS011;3931;42.260;23.116;2023-03-23T07:41:59;26.20;;;12.97;;
7773;SDS011;3931;42.260;23.116;2023-03-23T07:44:26;13.77;;;9.10;;
7773;SDS011;3931;42.260;23.116;2023-03-23T07:46:52;18.60;;;10.93;;
7773;SDS011;3931;42.260;23.116;2023-03-23T07:49:18;33.90;;;11.73;;
7773;SDS011;3931;42.260;23.116;2023-03-23T07:51:44;16.57;;;10.67;;
7773;SDS011;3931;42.260;23.116;2023-03-23T07:54:11;17.60;;;9.77;;
7773;SDS011;3931;42.260;23.116;2023-03-23T07:56:38;32.60;;;18.10;;
7773;SDS011;3931;42.260;23.116;2023-03-23T07:59:05;17.20;;;10.67;;
7773;SDS011;3931;42.260;23.116;2023-03-23T08:01:31;70.37;;;16.70;;
7773;SDS011;3931;42.260;23.116;2023-03-23T08:03:58;15.23;;;9.33;;
7773;SDS011;3931;42.260;23.116;2023-03-23T08:06:24;18.53;;;11.27;;
7773;SDS011;3931;42.260;23.116;2023-03-23T08:08:50;15.90;;;8.90;;
7773;SDS011;3931;42.260;23.116;2023-03-23T08:11:17;16.20;;;10.40;;
7773;SDS011;3931;42.260;23.116;2023-03-23T08:13:45;28.73;;;10.00;;
7773;SDS011;3931;42.260;23.116;2023-03-23T08:16:11;17.77;;;9.53;;
7773;SDS011;3931;42.260;23.116;2023-03-23T08:18:38;11.77;;;9.20;;
7773;SDS011;3931;42.260;23.116;2023-03-23T08:21:05;83.03;;;11.90;;
7773;SDS011;3931;42.260;23.116;2023-03-23T08:23:33;55.17;;;10.70;;
7773;SDS011;3931;42.260;23.116;2023-03-23T08:25:59;23.73;;;8.50;;
7773;SDS011;3931;42.260;23.116;2023-03-23T08:28:26;44.77;;;8.00;;
7773;SDS011;3931;42.260;23.116;2023-03-23T08:30:53;45.77;;;9.37;;
7773;SDS011;3931;42.260;23.116;2023-03-23T08:33:19;12.33;;;6.73;;
7773;SDS011;3931;42.260;23.116;2023-03-23T08:35:53;9.97;;;6.27;;
7773;SDS011;3931;42.260;23.116;2023-03-23T08:38:20;16.07;;;7.00;;
7773;SDS011;3931;42.260;23.116;2023-03-23T08:40:46;302.13;;;16.70;;
7773;SDS011;3931;42.260;23.116;2023-03-23T08:43:13;39.80;;;7.57;;
7773;SDS011;3931;42.260;23.116;2023-03-23T08:45:40;7.37;;;6.17;;
7773;SDS011;3931;42.260;23.116;2023-03-23T08:48:07;8.47;;;6.20;;
7773;SDS011;3931;42.260;23.116;2023-03-23T08:50:34;12.03;;;6.30;;
7773;SDS011;3931;42.260;23.116;2023-03-23T08:53:00;13.73;;;6.47;;
7773;SDS011;3931;42.260;23.116;2023-03-23T08:55:28;16.07;;;6.90;;
7773;SDS011;3931;42.260;23.116;2023-03-23T08:57:54;8.33;;;6.10;;
7773;SDS011;3931;42.260;23.116;2023-03-23T09:00:21;13.90;;;6.00;;
7773;SDS011;3931;42.260;23.116;2023-03-23T09:02:50;15.13;;;6.73;;
7773;SDS011;3931;42.260;23.116;2023-03-23T09:05:18;29.03;;;7.00;;
7773;SDS011;3931;42.260;23.116;2023-03-23T09:07:47;10.60;;;6.60;;
7773;SDS011;3931;42.260;23.116;2023-03-23T09:10:15;7.87;;;5.43;;
7773;SDS011;3931;42.260;23.116;2023-03-23T09:12:42;64.13;;;7.93;;
7773;SDS011;3931;42.260;23.116;2023-03-23T09:15:14;7.77;;;6.20;;
7773;SDS011;3931;42.260;23.116;2023-03-23T09:17:42;18.90;;;6.13;;
7773;SDS011;3931;42.260;23.116;2023-03-23T09:20:09;20.43;;;6.07;;
7773;SDS011;3931;42.260;23.116;2023-03-23T09:22:39;17.50;;;5.90;;
7773;SDS011;3931;42.260;23.116;2023-03-23T09:25:08;6.47;;;5.70;;
7773;SDS011;3931;42.260;23.116;2023-03-23T09:27:35;10.50;;;4.53;;
7773;SDS011;3931;42.260;23.116;2023-03-23T09:30:02;14.00;;;5.60;;
7773;SDS011;3931;42.260;23.116;2023-03-23T09:32:32;54.90;;;7.37;;
7773;SDS011;3931;42.260;23.116;2023-03-23T09:34:58;9.07;;;5.33;;
7773;SDS011;3931;42.260;23.116;2023-03-23T09:37:24;8.93;;;5.73;;
7773;SDS011;3931;42.260;23.116;2023-03-23T09:39:51;8.67;;;4.90;;
7773;SDS011;3931;42.260;23.116;2023-03-23T09:42:30;195.87;;;11.67;;
7773;SDS011;3931;42.260;23.116;2023-03-23T09:45:09;20.13;;;6.43;;
7773;SDS011;3931;42.260;23.116;2023-03-23T09:47:43;96.23;;;8.43;;
7773;SDS011;3931;42.260;23.116;2023-03-23T09:50:15;35.10;;;8.53;;
7773;SDS011;3931;42.260;23.116;2023-03-23T09:52:44;7.57;;;5.60;;
7773;SDS011;3931;42.260;23.116;2023-03-23T09:55:26;7.30;;;4.60;;
7773;SDS011;3931;42.260;23.116;2023-03-23T09:57:54;28.33;;;6.00;;
7773;SDS011;3931;42.260;23.116;2023-03-23T10:00:25;7.50;;;4.90;;
7773;SDS011;3931;42.260;23.116;2023-03-23T10:03:00;39.90;;;5.20;;
7773;SDS011;3931;42.260;23.116;2023-03-23T10:05:37;14.00;;;5.13;;
7773;SDS011;3931;42.260;23.116;2023-03-23T10:08:08;233.37;;;10.73;;
7773;SDS011;3931;42.260;23.116;2023-03-23T10:10:42;75.70;;;7.07;;
7773;SDS011;3931;42.260;23.116;2023-03-23T10:13:15;7.60;;;4.17;;
7773;SDS011;3931;42.260;23.116;2023-03-23T10:15:48;10.17;;;5.47;;
7773;SDS011;3931;42.260;23.116;2023-03-23T10:18:17;4.13;;;3.47;;
7773;SDS011;3931;42.260;23.116;2023-03-23T10:20:47;50.00;;;5.50;;
7773;SDS011;3931;42.260;23.116;2023-03-23T10:23:24;8.23;;;3.70;;
7773;SDS011;3931;42.260;23.116;2023-03-23T10:26:19;76.07;;;6.83;;
7773;SDS011;3931;42.260;23.116;2023-03-23T10:28:54;20.13;;;4.43;;
7773;SDS011;3931;42.260;23.116;2023-03-23T10:31:23;28.10;;;5.97;;
7773;SDS011;3931;42.260;23.116;2023-03-23T10:33:52;6.30;;;4.50;;
7773;SDS011;3931;42.260;23.116;2023-03-23T10:36:22;7.87;;;4.83;;
7773;SDS011;3931;42.260;23.116;2023-03-23T10:38:53;17.57;;;5.53;;
7773;SDS011;3931;42.260;23.116;2023-03-23T10:41:25;7.70;;;4.90;;
7773;SDS011;3931;42.260;23.116;2023-03-23T10:43:51;32.70;;;4.87;;
7773;SDS011;3931;42.260;23.116;2023-03-23T10:46:25;18.70;;;4.80;;
7773;SDS011;3931;42.260;23.116;2023-03-23T10:48:56;11.73;;;4.47;;
7773;SDS011;3931;42.260;23.116;2023-03-23T10:51:27;5.33;;;4.03;;
7773;SDS011;3931;42.260;23.116;2023-03-23T10:54:00;15.20;;;4.70;;
7773;SDS011;3931;42.260;23.116;2023-03-23T10:56:29;6.70;;;4.47;;
7773;SDS011;3931;42.260;23.116;2023-03-23T10:59:11;9.87;;;4.73;;
7773;SDS011;3931;42.260;23.116;2023-03-23T11:01:38;5.10;;;4.33;;
7773;SDS011;3931;42.260;23.116;2023-03-23T11:04:10;8.50;;;4.20;;
7773;SDS011;3931;42.260;23.116;2023-03-23T11:06:38;7.43;;;4.90;;
7773;SDS011;3931;42.260;23.116;2023-03-23T11:09:10;12.23;;;5.50;;
7773;SDS011;3931;42.260;23.116;2023-03-23T11:11:39;7.53;;;4.50;;
7773;SDS011;3931;42.260;23.116;2023-03-23T11:14:13;5.80;;;4.47;;
7773;SDS011;3931;42.260;23.116;2023-03-23T11:16:42;7.60;;;4.90;;
7773;SDS011;3931;42.260;23.116;2023-03-23T11:19:14;27.70;;;6.60;;
7773;SDS011;3931;42.260;23.116;2023-03-23T11:21:47;19.13;;;5.13;;
7773;SDS011;3931;42.260;23.116;2023-03-23T11:24:16;22.13;;;4.30;;
7773;SDS011;3931;42.260;23.116;2023-03-23T11:26:43;8.70;;;4.03;;
7773;SDS011;3931;42.260;23.116;2023-03-23T11:29:12;5.33;;;4.33;;
7773;SDS011;3931;42.260;23.116;2023-03-23T11:31:42;9.40;;;4.57;;
7773;SDS011;3931;42.260;23.116;2023-03-23T11:34:12;6.53;;;4.07;;
7773;SDS011;3931;42.260;23.116;2023-03-23T11:36:41;3.73;;;3.40;;
7773;SDS011;3931;42.260;23.116;2023-03-23T11:39:20;8.60;;;3.90;;
7773;SDS011;3931;42.260;23.116;2023-03-23T11:41:48;14.20;;;4.30;;
7773;SDS011;3931;42.260;23.116;2023-03-23T11:44:14;5.73;;;3.43;;
7773;SDS011;3931;42.260;23.116;2023-03-23T11:46:42;4.80;;;3.60;;
7773;SDS011;3931;42.260;23.116;2023-03-23T11:49:17;7.83;;;4.40;;
7773;SDS011;3931;42.260;23.116;2023-03-23T11:51:49;26.33;;;4.43;;
7773;SDS011;3931;42.260;23.116;2023-03-23T11:54:19;4.70;;;3.43;;
7773;SDS011;3931;42.260;23.116;2023-03-23T11:56:52;10.63;;;3.97;;
7773;SDS011;3931;42.260;23.116;2023-03-23T11:59:26;59.07;;;7.10;;
7773;SDS011;3931;42.260;23.116;2023-03-23T12:01:55;15.63;;;4.57;;
7773;SDS011;3931;42.260;23.116;2023-03-23T12:04:33;16.80;;;4.57;;
7773;SDS011;3931;42.260;23.116;2023-03-23T12:07:14;5.23;;;4.03;;
7773;SDS011;3931;42.260;23.116;2023-03-23T12:09:52;10.20;;;4.80;;
7773;SDS011;3931;42.260;23.116;2023-03-23T12:12:29;23.47;;;5.33;;
7773;SDS011;3931;42.260;23.116;2023-03-23T12:15:08;77.23;;;5.30;;
7773;SDS011;3931;42.260;23.116;2023-03-23T12:17:44;6.20;;;3.60;;
7773;SDS011;3931;42.260;23.116;2023-03-23T12:20:24;4.90;;;3.80;;
7773;SDS011;3931;42.260;23.116;2023-03-23T12:23:00;5.63;;;3.63;;
7773;SDS011;3931;42.260;23.116;2023-03-23T12:25:38;13.47;;;3.67;;
7773;SDS011;3931;42.260;23.116;2023-03-23T12:28:18;8.57;;;6.10;;
7773;SDS011;3931;42.260;23.116;2023-03-23T12:30:58;11.40;;;6.00;;
7773;SDS011;3931;42.260;23.116;2023-03-23T12:33:34;9.93;;;5.70;;
7773;SDS011;3931;42.260;23.116;2023-03-23T12:36:17;6.23;;;5.00;;
7773;SDS011;3931;42.260;23.116;2023-03-23T12:38:55;7.70;;;5.07;;
7773;SDS011;3931;42.260;23.116;2023-03-23T12:41:37;9.73;;;5.50;;
7773;SDS011;3931;42.260;23.116;2023-03-23T12:44:08;6.10;;;4.47;;
7773;SDS011;3931;42.260;23.116;2023-03-23T12:46:53;7.30;;;4.03;;
7773;SDS011;3931;42.260;23.116;2023-03-23T12:49:29;6.13;;;4.00;;
7773;SDS011;3931;42.260;23.116;2023-03-23T12:52:02;5.63;;;4.30;;
7773;SDS011;3931;42.260;23.116;2023-03-23T12:54:38;6.47;;;3.97;;
7773;SDS011;3931;42.260;23.116;2023-03-23T12:57:11;6.70;;;3.87;;
7773;SDS011;3931;42.260;23.116;2023-03-23T12:59:43;95.73;;;8.10;;
7773;SDS011;3931;42.260;23.116;2023-03-23T13:02:19;7.77;;;4.00;;
7773;SDS011;3931;42.260;23.116;2023-03-23T13:04:50;10.10;;;4.10;;
7773;SDS011;3931;42.260;23.116;2023-03-23T13:07:21;22.60;;;4.73;;
7773;SDS011;3931;42.260;23.116;2023-03-23T13:09:53;19.73;;;4.90;;
7773;SDS011;3931;42.260;23.116;2023-03-23T13:12:24;7.90;;;3.60;;
7773;SDS011;3931;42.260;23.116;2023-03-23T13:14:55;18.10;;;5.50;;
7773;SDS011;3931;42.260;23.116;2023-03-23T13:17:31;13.77;;;4.93;;
7773;SDS011;3931;42.260;23.116;2023-03-23T13:20:13;27.63;;;6.53;;
7773;SDS011;3931;42.260;23.116;2023-03-23T13:22:52;165.50;;;9.47;;
7773;SDS011;3931;42.260;23.116;2023-03-23T13:25:26;12.93;;;4.53;;
7773;SDS011;3931;42.260;23.116;2023-03-23T13:28:01;27.73;;;5.07;;
7773;SDS011;3931;42.260;23.116;2023-03-23T13:30:29;8.30;;;3.77;;
7773;SDS011;3931;42.260;23.116;2023-03-23T13:33:01;33.37;;;5.17;;
7773;SDS011;3931;42.260;23.116;2023-03-23T13:35:32;9.40;;;4.43;;
7773;SDS011;3931;42.260;23.116;2023-03-23T13:38:01;76.37;;;7.40;;
7773;SDS011;3931;42.260;23.116;2023-03-23T13:40:28;19.23;;;4.80;;
7773;SDS011;3931;42.260;23.116;2023-03-23T13:42:57;12.67;;;4.33;;
7773;SDS011;3931;42.260;23.116;2023-03-23T13:45:35;18.10;;;4.93;;
7773;SDS011;3931;42.260;23.116;2023-03-23T13:48:18;13.33;;;5.07;;
7773;SDS011;3931;42.260;23.116;2023-03-23T13:50:49;7.43;;;4.07;;
7773;SDS011;3931;42.260;23.116;2023-03-23T13:53:21;6.13;;;3.43;;
7773;SDS011;3931;42.260;23.116;2023-03-23T13:55:51;339.77;;;15.30;;
7773;SDS011;3931;42.260;23.116;2023-03-23T13:58:29;24.07;;;4.40;;
7773;SDS011;3931;42.260;23.116;2023-03-23T14:01:09;32.93;;;5.40;;
7773;SDS011;3931;42.260;23.116;2023-03-23T14:03:38;14.50;;;4.07;;
7773;SDS011;3931;42.260;23.116;2023-03-23T14:06:07;33.77;;;5.07;;
7773;SDS011;3931;42.260;23.116;2023-03-23T14:08:40;10.40;;;4.30;;
7773;SDS011;3931;42.260;23.116;2023-03-23T14:11:12;132.30;;;8.30;;
7773;SDS011;3931;42.260;23.116;2023-03-23T14:13:42;11.20;;;4.80;;
7773;SDS011;3931;42.260;23.116;2023-03-23T14:16:16;18.30;;;4.87;;
7773;SDS011;3931;42.260;23.116;2023-03-23T14:18:49;15.33;;;4.10;;
7773;SDS011;3931;42.260;23.116;2023-03-23T14:21:21;7.70;;;3.83;;
7773;SDS011;3931;42.260;23.116;2023-03-23T14:23:49;27.73;;;5.73;;
7773;SDS011;3931;42.260;23.116;2023-03-23T14:26:16;26.90;;;5.87;;
7773;SDS011;3931;42.260;23.116;2023-03-23T14:28:45;45.40;;;4.90;;
7773;SDS011;3931;42.260;23.116;2023-03-23T14:31:18;48.33;;;6.30;;
7773;SDS011;3931;42.260;23.116;2023-03-23T14:33:46;10.70;;;3.80;;
7773;SDS011;3931;42.260;23.116;2023-03-23T14:36:13;11.60;;;3.83;;
7773;SDS011;3931;42.260;23.116;2023-03-23T14:38:39;30.97;;;5.10;;
7773;SDS011;3931;42.260;23.116;2023-03-23T14:41:06;94.63;;;7.20;;
7773;SDS011;3931;42.260;23.116;2023-03-23T14:43:36;6.50;;;4.60;;
7773;SDS011;3931;42.260;23.116;2023-03-23T14:46:05;19.60;;;4.50;;
7773;SDS011;3931;42.260;23.116;2023-03-23T14:48:34;39.83;;;6.07;;
7773;SDS011;3931;42.260;23.116;2023-03-23T14:51:02;44.70;;;6.87;;
7773;SDS011;3931;42.260;23.116;2023-03-23T14:53:31;31.47;;;5.83;;
7773;SDS011;3931;42.260;23.116;2023-03-23T14:55:59;36.90;;;5.40;;
7773;SDS011;3931;42.260;23.116;2023-03-23T14:58:27;90.77;;;7.30;;
7773;SDS011;3931;42.260;23.116;2023-03-23T15:00:54;32.70;;;5.00;;
7773;SDS011;3931;42.260;23.116;2023-03-23T15:03:25;32.03;;;5.87;;